Red Lodge, MT (59068)

12:12 PM MDT on September 03, 2015 (GMT -0600)
Tipi Village Sub-Division | | Change Station
CLOSE
Current Station
Personal Weather Station
Location: Red Lodge, MT
Elevation: 5920 ft
Nearby Weather Stations

Elev 5920 ft 45.17 °N, 109.27 °W | Updated 2 minutes ago

Clear
Clear
64.7 °F
Feels Like 64.7 °F
N
1.0
Wind Variable Wind from North
Gusts 6.0 mph

Today
High -- | Low -- °F
--% Chance of Precip.
Yesterday
High -- | Low -- °F
Precip. -- in
6:41 AM 7:51 PM
Waning Gibbous, 68% visible
Pressure 29.90 in
Visibility 10.0 miles
Clouds Clear
Dew Point 40 °F
Humidity 40%
Rainfall 0.00 in
Snow Depth Not available.
UV 8 out of 12
Pollen 8.40 out of 12
Air Quality Not available.
Flu Activity Not available.
METAR KCOD 031755Z AUTO 03004KT 10SM CLR 19/04 A2990 RMK AO1 10190 20150 57010
Pressure 29.90 in
Visibility 10.0 miles
Clouds Clear
Dew Point 40 °F
Humidity 40%
Rainfall 0.00 in
Snow Depth Not available.
UV 8 out of 12
Pollen 8.40 out of 12
Air Quality Not available.
Flu Activity Not available.
METAR KCOD 031755Z AUTO 03004KT 10SM CLR 19/04 A2990 RMK AO1 10190 20150 57010

10-Day Weather Forecast

×

Almanac

Astronomy

Sep. 03, 2015 Rise Set
Actual Time
Civil Twilight
Nautical Twilight
Astronomical Twilight
Moon
Length of Visible Light
Length of Day
Tomorrow will be .
, % of the Moon is Illuminated

Today's Extremes

State Highs State Lows

Community

WunderPhotos

Upload Photos

1,851,994 photos uploaded!

WunderBlogs® & News

Nearby

Air Quality

  Air Quality AQ Index Pollutant
Not available.

Snow Depth

Station Depth Elevation

Earthquake Activity

City Distance Mag. Time & Date
Minimum magnitude displayed is 2.5.

Coastal Water Temperatures

Place Temperature

Stations

Nearby Weather Stations

Station Location Temp. Windchill Dew Point Humidity Wind Precip. Elev Updated Type